createdAt,value
2023-04-30T00:02:02.942Z,98586.09
2023-04-30T00:04:29.684Z,98589.25
2023-04-30T00:06:56.703Z,98593.53
2023-04-30T00:09:23.409Z,98599.22
2023-04-30T00:11:50.492Z,98604.53
2023-04-30T00:14:17.235Z,98600.91
2023-04-30T00:16:43.990Z,98604.53
2023-04-30T00:19:10.921Z,98601.06
2023-04-30T00:21:37.708Z,98598.56
2023-04-30T00:24:05.255Z,98607.69
2023-04-30T00:26:31.959Z,98604.88
2023-04-30T00:28:58.795Z,98596.91
2023-04-30T00:31:25.608Z,98604.22
2023-04-30T00:33:52.332Z,98600.22
2023-04-30T00:36:19.400Z,98608.56
2023-04-30T00:38:46.140Z,98605.22
2023-04-30T00:41:13.697Z,98605.72
2023-04-30T00:43:40.434Z,98604.56
2023-04-30T00:46:07.206Z,98603.56
2023-04-30T00:48:34.237Z,98606.88
2023-04-30T00:51:03.241Z,98599.09
2023-04-30T00:53:30.306Z,98607.06
2023-04-30T00:55:57.710Z,98612.06
2023-04-30T00:58:26.138Z,98610.03
2023-04-30T01:00:53.363Z,98613.88
2023-04-30T01:03:20.606Z,98607.91
2023-04-30T01:05:47.384Z,98607.91
2023-04-30T01:08:14.602Z,98609.91
2023-04-30T01:10:46.443Z,98609.25
2023-04-30T01:13:19.463Z,98621.38
2023-04-30T01:15:52.142Z,98613.75
2023-04-30T01:18:28.992Z,98609.59
2023-04-30T01:21:00.153Z,98616.06
2023-04-30T01:23:38.236Z,98618.72
2023-04-30T01:26:15.804Z,98603.59
2023-04-30T01:28:46.504Z,98605.59
2023-04-30T01:31:19.167Z,98609.59
2023-04-30T01:33:45.955Z,98612.94
2023-04-30T01:36:34.072Z,98601.66
2023-04-30T01:39:21.318Z,98606.44
2023-04-30T01:42:11.356Z,98599.97
2023-04-30T01:44:55.460Z,98610.59
2023-04-30T01:47:28.458Z,98613.94
2023-04-30T01:50:06.268Z,98603.47
2023-04-30T01:52:42.272Z,98602.00
2023-04-30T01:55:12.683Z,98598.00
2023-04-30T01:57:40.591Z,98593.19
2023-04-30T02:00:11.018Z,98604.81
2023-04-30T02:02:40.361Z,98601.16
2023-04-30T02:05:07.773Z,98604.00
2023-04-30T02:07:42.639Z,98605.78
2023-04-30T02:10:10.224Z,98601.34
2023-04-30T02:12:37.056Z,98599.03
2023-04-30T02:15:05.137Z,98596.66
2023-04-30T02:17:32.593Z,98592.22
2023-04-30T02:19:59.772Z,98591.69
2023-04-30T02:22:26.857Z,98594.53
2023-04-30T02:24:55.770Z,98592.16
2023-04-30T02:27:23.695Z,98588.88
2023-04-30T02:29:50.488Z,98588.69
2023-04-30T02:32:17.887Z,98591.84
2023-04-30T02:34:45.022Z,98587.03
2023-04-30T02:37:11.890Z,98585.03
2023-04-30T02:39:38.569Z,98586.22
2023-04-30T02:42:06.940Z,98583.03
2023-04-30T02:44:34.145Z,98590.69
2023-04-30T02:47:02.580Z,98582.56
2023-04-30T02:49:29.753Z,98584.38
2023-04-30T02:51:56.460Z,98581.41
2023-04-30T02:54:23.277Z,98586.38
2023-04-30T02:56:50.029Z,98578.06
2023-04-30T02:59:16.772Z,98572.28
2023-04-30T03:01:43.543Z,98582.91
2023-04-30T03:04:10.547Z,98576.09
2023-04-30T03:06:37.271Z,98574.75
2023-04-30T03:09:04.080Z,98573.59
2023-04-30T03:11:30.922Z,98576.09
2023-04-30T03:13:57.730Z,98579.72
2023-04-30T03:16:24.457Z,98580.25
2023-04-30T03:18:51.372Z,98587.34
2023-04-30T03:21:18.269Z,98577.91
2023-04-30T03:23:45.023Z,98583.38
2023-04-30T03:26:12.485Z,98583.38
2023-04-30T03:28:39.209Z,98578.56
2023-04-30T03:31:05.990Z,98588.03
2023-04-30T03:33:33.416Z,98589.84
2023-04-30T03:36:00.472Z,98583.56
2023-04-30T03:38:27.276Z,98581.88
2023-04-30T03:40:54.045Z,98580.38
2023-04-30T03:43:21.056Z,98590.19
2023-04-30T03:45:47.993Z,98588.34
2023-04-30T03:48:14.816Z,98583.03
2023-04-30T03:50:41.572Z,98584.53
2023-04-30T03:53:08.304Z,98584.72
2023-04-30T03:55:35.762Z,98587.06
2023-04-30T03:58:02.916Z,98588.69
2023-04-30T04:00:29.642Z,98587.06
2023-04-30T04:02:58.302Z,98579.38
2023-04-30T04:05:25.199Z,98580.41
2023-04-30T04:07:51.899Z,98589.19
2023-04-30T04:10:18.878Z,98587.34
2023-04-30T04:12:46.530Z,98591.19
2023-04-30T04:15:13.750Z,98590.00
2023-04-30T04:17:40.634Z,98593.34
2023-04-30T04:20:08.488Z,98598.66
2023-04-30T04:22:36.500Z,98603.63
2023-04-30T04:25:03.277Z,98611.25
2023-04-30T04:27:32.378Z,98606.28
2023-04-30T04:29:59.067Z,98604.47
2023-04-30T04:32:26.095Z,98604.47
2023-04-30T04:34:54.443Z,98609.59
2023-04-30T04:37:21.343Z,98612.25
2023-04-30T04:39:48.086Z,98613.09
2023-04-30T04:42:18.154Z,98607.13
2023-04-30T04:44:44.934Z,98610.63
2023-04-30T04:47:13.018Z,98607.97
2023-04-30T04:49:40.178Z,98610.63
2023-04-30T04:52:07.273Z,98619.41
2023-04-30T04:54:34.667Z,98607.97
2023-04-30T04:57:03.234Z,98618.06
2023-04-30T04:59:30.128Z,98613.44
2023-04-30T05:01:56.963Z,98607.78
2023-04-30T05:04:23.677Z,98607.28
2023-04-30T05:06:50.508Z,98611.91
2023-04-30T05:09:17.718Z,98609.94
2023-04-30T05:11:46.360Z,98610.16
2023-04-30T05:14:13.071Z,98608.63
2023-04-30T05:16:40.407Z,98618.94
2023-04-30T05:19:09.895Z,98604.81
2023-04-30T05:21:37.193Z,98617.41
2023-04-30T05:24:04.489Z,98614.94
2023-04-30T05:26:31.212Z,98621.06
2023-04-30T05:28:58.115Z,98622.22
2023-04-30T05:31:24.882Z,98626.38
2023-04-30T05:33:52.205Z,98622.41
2023-04-30T05:36:18.940Z,98616.91
2023-04-30T05:38:45.666Z,98621.56
2023-04-30T05:41:13.364Z,98617.19
2023-04-30T05:43:40.076Z,98616.84
2023-04-30T05:46:06.962Z,98618.00
2023-04-30T05:48:33.779Z,98618.00
2023-04-30T05:51:00.499Z,98617.28
2023-04-30T05:53:28.436Z,98618.31
2023-04-30T05:55:55.169Z,98619.97
2023-04-30T05:58:21.902Z,98617.50
2023-04-30T06:00:52.291Z,98615.38
2023-04-30T06:03:19.312Z,98607.50
2023-04-30T06:05:47.440Z,98617.69
2023-04-30T06:08:14.293Z,98608.53
2023-04-30T06:10:41.029Z,98609.81
2023-04-30T06:13:07.754Z,98612.28
2023-04-30T06:15:34.510Z,98605.91
2023-04-30T06:18:01.392Z,98604.75
2023-04-30T06:20:28.309Z,98616.38
2023-04-30T06:22:55.411Z,98614.00
2023-04-30T06:25:22.381Z,98618.69
2023-04-30T06:27:49.137Z,98624.50
2023-04-30T06:30:16.104Z,98617.81
2023-04-30T06:32:42.833Z,98623.63
2023-04-30T06:35:09.810Z,98619.25
2023-04-30T06:37:38.272Z,98621.59
2023-04-30T06:40:06.688Z,98621.09
2023-04-30T06:42:36.822Z,98628.25
2023-04-30T06:45:04.292Z,98621.75
2023-04-30T06:47:38.554Z,98624.56
2023-04-30T06:50:05.899Z,98631.72
2023-04-30T06:52:32.630Z,98630.03
2023-04-30T06:54:59.299Z,98625.47
2023-04-30T06:57:26.020Z,98625.81
2023-04-30T06:59:53.138Z,98626.78
2023-04-30T07:02:22.025Z,98629.34
2023-04-30T07:04:49.598Z,98634.25
2023-04-30T07:07:16.401Z,98628.56
2023-04-30T07:09:43.107Z,98626.03
2023-04-30T07:12:11.313Z,98629.28
2023-04-30T07:14:38.044Z,98619.59
2023-04-30T07:17:04.859Z,98616.94
2023-04-30T07:19:32.757Z,98613.28
2023-04-30T07:21:59.581Z,98618.50
2023-04-30T07:24:26.368Z,98614.72
2023-04-30T07:26:53.129Z,98612.25
2023-04-30T07:29:20.104Z,98612.41
2023-04-30T07:31:46.992Z,98617.59
2023-04-30T07:34:13.742Z,98604.75
2023-04-30T07:36:40.608Z,98612.09
2023-04-30T07:39:08.211Z,98604.47
2023-04-30T07:41:35.012Z,98606.25
2023-04-30T07:44:01.740Z,98604.06
2023-04-30T07:46:28.546Z,98600.09
2023-04-30T07:48:55.354Z,98607.34
2023-04-30T07:51:22.633Z,98607.19
2023-04-30T07:53:49.333Z,98603.50
2023-04-30T07:56:16.195Z,98598.09
2023-04-30T07:58:43.258Z,98598.31
2023-04-30T08:01:10.000Z,98593.72
2023-04-30T08:03:36.891Z,98588.84
2023-04-30T08:06:05.262Z,98603.09
2023-04-30T08:08:31.978Z,98590.75
2023-04-30T08:10:58.740Z,98597.69
2023-04-30T08:13:25.501Z,98585.63
2023-04-30T08:15:52.206Z,98593.06
2023-04-30T08:18:18.947Z,98592.13
2023-04-30T08:20:45.764Z,98586.22
2023-04-30T08:23:12.491Z,98593.75
2023-04-30T08:25:39.195Z,98593.59
2023-04-30T08:28:07.171Z,98593.66
2023-04-30T08:30:34.000Z,98593.34
2023-04-30T08:33:00.741Z,98596.72
2023-04-30T08:35:29.829Z,98594.97
2023-04-30T08:37:56.534Z,98586.03
2023-04-30T08:40:33.724Z,98592.00
2023-04-30T08:43:11.790Z,98585.50
2023-04-30T08:45:38.532Z,98589.97
2023-04-30T08:48:06.019Z,98593.22
2023-04-30T08:50:32.799Z,98590.53
2023-04-30T08:52:59.644Z,98594.50
2023-04-30T08:55:30.156Z,98595.00
2023-04-30T08:57:56.864Z,98589.88
2023-04-30T09:00:23.629Z,98598.38
2023-04-30T09:02:50.831Z,98591.06
2023-04-30T09:05:17.582Z,98601.28
2023-04-30T09:08:01.062Z,98599.00
2023-04-30T09:10:32.824Z,98588.47
2023-04-30T09:13:02.125Z,98591.78
2023-04-30T09:15:29.933Z,98590.44
2023-04-30T09:18:21.912Z,98582.22
2023-04-30T09:21:01.333Z,98587.19
2023-04-30T09:23:28.571Z,98589.47
2023-04-30T09:25:55.634Z,98576.97
2023-04-30T09:28:28.859Z,98580.63
2023-04-30T09:30:59.409Z,98581.91
2023-04-30T09:33:26.538Z,98582.91
2023-04-30T09:35:53.283Z,98586.94
2023-04-30T09:38:27.093Z,98564.84
2023-04-30T09:40:53.833Z,98575.16
2023-04-30T09:43:20.572Z,98578.81
2023-04-30T09:45:49.914Z,98570.75
2023-04-30T09:48:18.041Z,98579.75
2023-04-30T09:50:48.012Z,98575.88
2023-04-30T09:53:18.103Z,98584.13
2023-04-30T09:55:45.436Z,98577.53
2023-04-30T09:58:12.704Z,98574.91
2023-04-30T10:00:40.127Z,98571.47
2023-04-30T10:03:11.383Z,98570.44
2023-04-30T10:05:41.386Z,98569.00
2023-04-30T10:08:14.279Z,98575.59
2023-04-30T10:10:41.755Z,98571.03
2023-04-30T10:13:11.277Z,98574.78
2023-04-30T10:15:46.274Z,98560.75
2023-04-30T10:18:26.767Z,98573.53
2023-04-30T10:20:54.477Z,98576.41
2023-04-30T10:23:22.384Z,98573.97
2023-04-30T10:25:49.510Z,98572.69
2023-04-30T10:28:16.385Z,98567.97
2023-04-30T10:30:43.864Z,98569.38
2023-04-30T10:33:23.609Z,98568.16
2023-04-30T10:35:57.791Z,98572.22
2023-04-30T10:38:29.940Z,98571.47
2023-04-30T10:41:04.043Z,98570.00
2023-04-30T10:43:31.407Z,98575.09
2023-04-30T10:45:58.953Z,98570.78
2023-04-30T10:48:26.983Z,98570.00
2023-04-30T10:50:56.712Z,98561.34
2023-04-30T10:53:26.467Z,98568.16
2023-04-30T10:56:09.334Z,98562.19
2023-04-30T10:58:38.936Z,98561.56
2023-04-30T11:01:12.247Z,98550.44
2023-04-30T11:03:42.550Z,98554.78
2023-04-30T11:06:13.085Z,98554.97
2023-04-30T11:08:43.023Z,98548.38
2023-04-30T11:11:11.008Z,98553.72
2023-04-30T11:13:48.697Z,98550.00
2023-04-30T11:16:20.359Z,98546.47
2023-04-30T11:18:47.475Z,98552.84
2023-04-30T11:21:14.355Z,98553.72
2023-04-30T11:23:43.396Z,98546.72
2023-04-30T11:26:10.545Z,98547.97
2023-04-30T11:28:38.340Z,98541.13
2023-04-30T11:31:05.732Z,98546.47
2023-04-30T11:33:33.735Z,98541.13
2023-04-30T11:36:01.635Z,98534.31
2023-04-30T11:38:35.164Z,98531.97
2023-04-30T11:41:02.733Z,98526.34
2023-04-30T11:43:31.522Z,98529.59
2023-04-30T11:46:12.201Z,98523.34
2023-04-30T11:48:40.778Z,98533.81
2023-04-30T11:51:24.736Z,98535.50
2023-04-30T11:53:52.900Z,98537.59
2023-04-30T11:56:24.973Z,98528.94
2023-04-30T11:58:52.927Z,98526.28
2023-04-30T12:01:21.320Z,98513.25
2023-04-30T12:03:50.898Z,98518.66
2023-04-30T12:06:25.170Z,98508.31
2023-04-30T12:08:56.357Z,98512.00
2023-04-30T12:11:26.005Z,98512.44
2023-04-30T12:13:57.594Z,98503.47
2023-04-30T12:16:25.856Z,98495.75
2023-04-30T12:18:53.070Z,98503.91
2023-04-30T12:21:21.697Z,98495.63
2023-04-30T12:23:48.558Z,98498.81
2023-04-30T12:26:15.296Z,98502.31
2023-04-30T12:28:41.992Z,98504.59
2023-04-30T12:31:08.845Z,98498.97
2023-04-30T12:33:37.373Z,98507.09
2023-04-30T12:36:04.313Z,98504.53
2023-04-30T12:38:31.117Z,98501.81
2023-04-30T12:40:58.001Z,98503.28
2023-04-30T12:43:24.716Z,98502.09
2023-04-30T12:45:53.376Z,98494.84
2023-04-30T12:48:21.981Z,98501.25
2023-04-30T12:51:10.272Z,98489.81
2023-04-30T12:53:46.079Z,98494.19
2023-04-30T12:56:17.131Z,98493.41
2023-04-30T12:58:51.218Z,98483.88
2023-04-30T13:01:20.616Z,98485.94
2023-04-30T13:03:47.751Z,98484.06
2023-04-30T13:06:14.612Z,98471.84
2023-04-30T13:08:57.209Z,98473.91
2023-04-30T13:11:26.648Z,98476.56
2023-04-30T13:13:55.670Z,98477.19
2023-04-30T13:16:23.198Z,98468.78
2023-04-30T13:18:49.938Z,98471.50
2023-04-30T13:21:16.651Z,98466.78
2023-04-30T13:23:51.784Z,98462.47
2023-04-30T13:26:21.542Z,98460.78
2023-04-30T13:28:48.242Z,98460.28
2023-04-30T13:31:15.047Z,98452.34
2023-04-30T13:33:41.839Z,98453.03
2023-04-30T13:36:08.542Z,98442.75
2023-04-30T13:38:35.281Z,98444.06
2023-04-30T13:41:01.986Z,98439.22
2023-04-30T13:43:28.645Z,98436.25
2023-04-30T13:45:55.437Z,98436.75
2023-04-30T13:48:22.245Z,98439.72
2023-04-30T13:50:49.040Z,98443.28
2023-04-30T13:53:16.288Z,98437.19
2023-04-30T13:55:43.022Z,98437.75
2023-04-30T13:58:09.813Z,98441.31
2023-04-30T14:00:36.568Z,98444.03
2023-04-30T14:03:04.515Z,98434.69
2023-04-30T14:05:33.130Z,98431.06
2023-04-30T14:08:00.217Z,98429.38
2023-04-30T14:10:27.270Z,98434.13
2023-04-30T14:12:54.094Z,98438.38
2023-04-30T14:15:21.513Z,98438.69
2023-04-30T14:17:48.651Z,98446.53
2023-04-30T14:20:15.465Z,98441.94
2023-04-30T14:22:42.431Z,98442.84
2023-04-30T14:25:09.764Z,98434.25
2023-04-30T14:27:37.213Z,98436.09
2023-04-30T14:30:04.456Z,98421.88
2023-04-30T14:32:31.306Z,98417.84
2023-04-30T14:34:58.136Z,98423.78
2023-04-30T14:37:28.004Z,98414.34
2023-04-30T14:39:54.977Z,98425.28
2023-04-30T14:42:21.864Z,98410.00
2023-04-30T14:44:48.544Z,98401.69
2023-04-30T14:47:15.266Z,98399.41
2023-04-30T14:49:41.998Z,98402.72
2023-04-30T14:52:09.155Z,98389.56
2023-04-30T14:54:35.946Z,98394.97
2023-04-30T14:57:04.275Z,98392.63
2023-04-30T14:59:31.692Z,98395.81
2023-04-30T15:01:58.677Z,98392.06
2023-04-30T15:04:25.475Z,98386.88
2023-04-30T15:06:52.375Z,98392.47
2023-04-30T15:09:19.417Z,98382.66
2023-04-30T15:11:46.177Z,98381.66
2023-04-30T15:14:12.955Z,98387.28
2023-04-30T15:16:40.324Z,98385.63
2023-04-30T15:19:07.809Z,98378.00
2023-04-30T15:21:34.636Z,98374.50
2023-04-30T15:24:01.482Z,98361.91
2023-04-30T15:26:29.009Z,98367.03
2023-04-30T15:28:57.039Z,98356.28
2023-04-30T15:31:24.405Z,98361.66
2023-04-30T15:33:51.955Z,98362.13
2023-04-30T15:36:19.289Z,98358.88
2023-04-30T15:38:46.079Z,98363.88
2023-04-30T15:41:12.766Z,98362.94
2023-04-30T15:43:39.701Z,98361.09
2023-04-30T15:46:06.478Z,98368.91
2023-04-30T15:48:33.286Z,98360.84
2023-04-30T15:51:00.310Z,98356.56
2023-04-30T15:53:27.043Z,98351.56
2023-04-30T15:55:54.096Z,98357.94
2023-04-30T15:58:20.855Z,98358.94
2023-04-30T16:00:47.740Z,98364.34
2023-04-30T16:03:14.554Z,98366.38
2023-04-30T16:05:41.944Z,98356.50
2023-04-30T16:08:12.373Z,98357.13
2023-04-30T16:10:39.223Z,98358.13
2023-04-30T16:13:05.958Z,98360.63
2023-04-30T16:15:33.206Z,98353.63
2023-04-30T16:17:59.996Z,98347.22
2023-04-30T16:20:27.523Z,98340.47
2023-04-30T16:22:54.975Z,98343.75
2023-04-30T16:25:22.366Z,98340.25
2023-04-30T16:27:49.988Z,98341.09
2023-04-30T16:30:16.756Z,98339.03
2023-04-30T16:32:44.514Z,98333.84
2023-04-30T16:35:11.454Z,98340.50
2023-04-30T16:37:38.181Z,98335.75
2023-04-30T16:40:06.599Z,98329.16
2023-04-30T16:42:34.050Z,98328.56
2023-04-30T16:45:00.770Z,98328.56
2023-04-30T16:47:27.701Z,98323.63
2023-04-30T16:49:55.935Z,98319.31
2023-04-30T16:52:22.898Z,98322.22
2023-04-30T16:54:49.626Z,98320.34
2023-04-30T16:57:16.826Z,98315.19
2023-04-30T16:59:43.534Z,98308.81
2023-04-30T17:02:10.349Z,98307.78
2023-04-30T17:04:37.270Z,98308.81
2023-04-30T17:07:04.038Z,98312.94
2023-04-30T17:09:31.448Z,98314.38
2023-04-30T17:11:58.177Z,98312.13
2023-04-30T17:14:24.995Z,98320.75
2023-04-30T17:16:51.659Z,98316.44
2023-04-30T17:19:18.333Z,98316.00
2023-04-30T17:21:45.067Z,98317.88
2023-04-30T17:24:11.928Z,98316.38
2023-04-30T17:26:38.614Z,98319.69
2023-04-30T17:29:06.356Z,98317.41
2023-04-30T17:31:33.383Z,98319.03
2023-04-30T17:34:02.818Z,98321.13
2023-04-30T17:36:30.517Z,98321.50
2023-04-30T17:38:57.269Z,98321.31
2023-04-30T17:41:24.206Z,98326.22
2023-04-30T17:43:51.867Z,98322.72
2023-04-30T17:46:18.612Z,98322.69
2023-04-30T17:48:45.339Z,98334.81
2023-04-30T17:51:12.137Z,98334.44
2023-04-30T17:53:38.851Z,98327.41
2023-04-30T17:56:05.886Z,98327.59
2023-04-30T17:58:32.856Z,98330.69
2023-04-30T18:01:01.806Z,98324.06
2023-04-30T18:03:28.935Z,98324.69
2023-04-30T18:05:55.783Z,98327.50
2023-04-30T18:08:22.601Z,98327.91
2023-04-30T18:10:49.835Z,98327.66
2023-04-30T18:13:16.564Z,98324.53
2023-04-30T18:15:43.318Z,98322.50
2023-04-30T18:18:10.150Z,98322.44
2023-04-30T18:20:37.158Z,98331.25
2023-04-30T18:23:05.911Z,98334.72
2023-04-30T18:25:34.522Z,98330.50
2023-04-30T18:28:01.585Z,98327.41
2023-04-30T18:30:28.311Z,98331.72
2023-04-30T18:32:55.115Z,98329.22
2023-04-30T18:35:22.343Z,98334.69
2023-04-30T18:37:49.806Z,98331.78
2023-04-30T18:40:17.433Z,98333.78
2023-04-30T18:42:44.276Z,98333.53
2023-04-30T18:45:11.995Z,98329.81
2023-04-30T18:47:38.800Z,98338.56
2023-04-30T18:50:07.783Z,98341.63
2023-04-30T18:52:34.544Z,98339.66
2023-04-30T18:55:01.590Z,98343.53
2023-04-30T18:57:28.970Z,98339.97
2023-04-30T18:59:56.100Z,98337.50
2023-04-30T19:02:23.229Z,98342.59
2023-04-30T19:04:50.859Z,98345.56
2023-04-30T19:07:17.651Z,98343.19
2023-04-30T19:09:45.616Z,98346.03
2023-04-30T19:12:12.400Z,98348.06
2023-04-30T19:14:39.147Z,98344.94
2023-04-30T19:17:06.027Z,98341.00
2023-04-30T19:19:33.146Z,98336.25
2023-04-30T19:21:59.865Z,98344.59
2023-04-30T19:24:26.634Z,98340.66
2023-04-30T19:26:53.392Z,98345.53
2023-04-30T19:29:20.269Z,98348.56
2023-04-30T19:31:47.146Z,98359.72
2023-04-30T19:34:16.737Z,98349.88
2023-04-30T19:36:44.285Z,98361.34
2023-04-30T19:39:11.980Z,98355.56
2023-04-30T19:41:39.588Z,98363.94
2023-04-30T19:44:07.894Z,98356.31
2023-04-30T19:46:35.028Z,98363.69
2023-04-30T19:49:01.787Z,98355.22
2023-04-30T19:51:28.610Z,98362.38
2023-04-30T19:53:55.733Z,98365.81
2023-04-30T19:56:22.573Z,98371.84
2023-04-30T19:58:50.044Z,98368.28
2023-04-30T20:01:17.543Z,98362.97
2023-04-30T20:03:44.859Z,98355.91
2023-04-30T20:06:12.379Z,98360.13
2023-04-30T20:08:39.382Z,98362.31
2023-04-30T20:11:06.219Z,98365.34
2023-04-30T20:13:33.117Z,98357.91
2023-04-30T20:15:59.901Z,98356.41
2023-04-30T20:18:26.716Z,98357.16
2023-04-30T20:20:53.733Z,98353.84
2023-04-30T20:23:20.804Z,98358.53
2023-04-30T20:25:48.081Z,98352.91
2023-04-30T20:28:16.004Z,98354.97
2023-04-30T20:30:43.269Z,98355.66
2023-04-30T20:33:13.625Z,98353.19
2023-04-30T20:35:41.879Z,98343.72
2023-04-30T20:38:08.762Z,98340.41
2023-04-30T20:40:35.835Z,98352.41
2023-04-30T20:43:02.652Z,98348.09
2023-04-30T20:45:30.358Z,98343.13
2023-04-30T20:47:57.240Z,98345.16
2023-04-30T20:50:24.018Z,98346.81
2023-04-30T20:52:50.715Z,98344.88
2023-04-30T20:55:17.587Z,98347.16
2023-04-30T20:57:44.291Z,98344.50
2023-04-30T21:00:12.212Z,98343.88
2023-04-30T21:02:39.382Z,98345.88
2023-04-30T21:05:06.963Z,98343.09
2023-04-30T21:07:37.462Z,98338.78
2023-04-30T21:10:08.541Z,98344.66
2023-04-30T21:12:35.754Z,98345.66
2023-04-30T21:15:03.212Z,98344.00
2023-04-30T21:17:30.059Z,98343.69
2023-04-30T21:19:57.400Z,98340.50
2023-04-30T21:22:24.766Z,98343.31
2023-04-30T21:24:54.781Z,98342.56
2023-04-30T21:27:21.791Z,98341.09
2023-04-30T21:29:48.657Z,98339.41
2023-04-30T21:32:15.389Z,98337.31
2023-04-30T21:34:42.272Z,98337.63
2023-04-30T21:37:09.001Z,98330.72
2023-04-30T21:39:35.867Z,98329.72
2023-04-30T21:42:04.689Z,98330.22
2023-04-30T21:44:32.952Z,98330.72
2023-04-30T21:47:00.173Z,98324.75
2023-04-30T21:49:27.249Z,98329.59
2023-04-30T21:51:54.072Z,98333.25
2023-04-30T21:54:20.925Z,98317.19
2023-04-30T21:56:48.192Z,98323.34
2023-04-30T21:59:14.890Z,98319.19
2023-04-30T22:01:41.635Z,98317.25
2023-04-30T22:04:08.992Z,98309.94
2023-04-30T22:06:35.995Z,98315.94
2023-04-30T22:09:02.755Z,98312.63
2023-04-30T22:11:29.616Z,98308.31
2023-04-30T22:13:56.310Z,98299.22
2023-04-30T22:16:23.120Z,98297.09
2023-04-30T22:18:49.927Z,98296.13
2023-04-30T22:21:16.645Z,98293.97
2023-04-30T22:23:43.583Z,98294.13
2023-04-30T22:26:11.545Z,98289.13
2023-04-30T22:28:38.451Z,98283.50
2023-04-30T22:31:05.321Z,98289.81
2023-04-30T22:33:36.609Z,98288.81
2023-04-30T22:36:06.475Z,98276.88
2023-04-30T22:38:33.894Z,98274.53
2023-04-30T22:41:01.371Z,98279.03
2023-04-30T22:43:30.837Z,98281.88
2023-04-30T22:45:58.855Z,98274.88
2023-04-30T22:48:27.821Z,98273.53
2023-04-30T22:50:55.679Z,98269.88
2023-04-30T22:53:22.904Z,98270.06
2023-04-30T22:55:50.116Z,98274.38
2023-04-30T22:58:17.634Z,98277.19
2023-04-30T23:00:44.486Z,98284.88
2023-04-30T23:03:11.532Z,98275.75
2023-04-30T23:05:38.894Z,98284.28
2023-04-30T23:08:05.632Z,98282.44
2023-04-30T23:10:32.316Z,98285.44
2023-04-30T23:12:59.244Z,98284.59
2023-04-30T23:15:26.408Z,98277.63
2023-04-30T23:17:54.709Z,98273.38
2023-04-30T23:20:23.045Z,98279.00
2023-04-30T23:22:50.329Z,98277.38
2023-04-30T23:25:17.247Z,98279.72
2023-04-30T23:27:45.228Z,98273.09
2023-04-30T23:30:12.228Z,98272.78
2023-04-30T23:32:39.123Z,98270.13
2023-04-30T23:35:07.998Z,98269.66
2023-04-30T23:37:35.296Z,98270.47
2023-04-30T23:40:02.331Z,98268.47
2023-04-30T23:42:29.237Z,98267.16
2023-04-30T23:44:55.904Z,98266.97
2023-04-30T23:47:22.807Z,98266.00
2023-04-30T23:49:49.693Z,98266.31
2023-04-30T23:52:16.518Z,98254.88
2023-04-30T23:54:43.364Z,98261.50
2023-04-30T23:57:10.443Z,98258.19
2023-04-30T23:59:37.238Z,98258.34
